Time;durP1;ratioP1;P1;durP2;ratioP2;P2;SDS_P1;SDS_P2;PMS_P1;PMS_P2;Temp;Humidity;BMP_temperature;BMP_pressure;BME280_temperature;BME280_humidity;BME280_pressure;Samples;Min_cycle;Max_cycle;Signal;HPM_P1;HPM_P2
2021/09/10 00:00:13;;;;;;;11.93;8.35;;;17.30;76.80;;;;;;5053680;28;20029;-75
2021/09/10 00:02:39;;;;;;;12.63;8.60;;;17.20;77.10;;;;;;5053449;28;20036;-75
2021/09/10 00:05:06;;;;;;;11.88;8.18;;;17.20;77.30;;;;;;5053357;28;20025;-75
2021/09/10 00:07:31;;;;;;;10.25;8.23;;;17.00;77.40;;;;;;5053374;28;20025;-75
2021/09/10 00:09:57;;;;;;;8.82;7.80;;;17.00;77.60;;;;;;5053567;28;20021;-75
2021/09/10 00:12:22;;;;;;;8.00;7.03;;;17.00;77.80;;;;;;5053372;28;20551;-75
2021/09/10 00:14:48;;;;;;;11.95;8.02;;;16.90;77.90;;;;;;5053363;28;20025;-75
2021/09/10 00:17:13;;;;;;;9.02;8.00;;;17.00;77.90;;;;;;5053434;28;20477;-75
2021/09/10 00:19:39;;;;;;;12.88;9.00;;;17.00;77.80;;;;;;5053739;28;20029;-75
2021/09/10 00:22:04;;;;;;;12.43;8.70;;;16.90;78.00;;;;;;5054028;28;20032;-76
2021/09/10 00:24:30;;;;;;;11.43;8.63;;;16.90;78.10;;;;;;5053238;28;20021;-75
2021/09/10 00:26:55;;;;;;;11.40;8.18;;;16.90;78.00;;;;;;5053382;28;20025;-75
2021/09/10 00:29:21;;;;;;;10.25;7.30;;;16.90;77.80;;;;;;5053359;28;20469;-75
2021/09/10 00:31:47;;;;;;;10.55;7.47;;;17.00;77.70;;;;;;5053477;28;20389;-75
2021/09/10 00:34:13;;;;;;;10.30;7.03;;;17.00;77.30;;;;;;5053042;28;20071;-75
2021/09/10 00:36:39;;;;;;;11.15;8.27;;;17.00;77.10;;;;;;5053188;28;20049;-75
2021/09/10 00:39:04;;;;;;;9.15;7.72;;;17.00;77.10;;;;;;5053592;28;20129;-74
2021/09/10 00:41:30;;;;;;;9.93;7.97;;;16.90;77.20;;;;;;5053312;28;20029;-74
2021/09/10 00:43:56;;;;;;;10.15;7.70;;;16.80;77.20;;;;;;5054160;28;20032;-74
2021/09/10 00:46:21;;;;;;;9.25;7.97;;;16.80;77.50;;;;;;5053507;28;20388;-75
2021/09/10 00:48:47;;;;;;;13.95;7.85;;;16.80;77.50;;;;;;5052954;28;20086;-75
2021/09/10 00:51:13;;;;;;;9.15;7.93;;;16.80;77.50;;;;;;5052959;28;20032;-74
2021/09/10 00:53:38;;;;;;;9.30;7.82;;;16.70;77.90;;;;;;5052885;28;20025;-74
2021/09/10 00:56:04;;;;;;;11.32;8.30;;;16.70;78.20;;;;;;5053036;28;20028;-75
2021/09/10 00:58:30;;;;;;;13.02;8.27;;;16.70;78.40;;;;;;5052865;28;20538;-75
2021/09/10 01:00:55;;;;;;;9.90;8.02;;;16.60;78.60;;;;;;5052978;28;20025;-74
2021/09/10 01:03:21;;;;;;;8.85;7.95;;;16.60;78.80;;;;;;5052882;28;20017;-75
2021/09/10 01:05:46;;;;;;;12.57;8.93;;;16.60;79.00;;;;;;5053000;28;20119;-75
2021/09/10 01:08:13;;;;;;;9.98;7.85;;;16.60;79.00;;;;;;5052878;28;20037;-75
2021/09/10 01:10:41;;;;;;;11.15;8.20;;;16.60;78.70;;;;;;5052598;28;20044;-74
2021/09/10 01:13:07;;;;;;;11.57;8.35;;;16.50;79.00;;;;;;5052673;28;20028;-75
2021/09/10 01:15:33;;;;;;;13.18;8.10;;;16.40;79.10;;;;;;5052625;28;20052;-74
2021/09/10 01:17:59;;;;;;;11.23;8.20;;;16.50;79.00;;;;;;5052679;28;20037;-74
2021/09/10 01:20:24;;;;;;;8.93;7.95;;;16.50;79.00;;;;;;5052688;28;20021;-74
2021/09/10 01:22:50;;;;;;;8.88;7.35;;;16.50;78.90;;;;;;5052644;28;20067;-75
2021/09/10 01:25:18;;;;;;;9.82;8.10;;;16.50;78.90;;;;;;5053009;28;20100;-75
2021/09/10 01:27:53;;;;;;;12.00;7.95;;;16.50;79.00;;;;;;5052610;28;20019;-74
2021/09/10 01:30:21;;;;;;;12.55;8.45;;;16.50;79.00;;;;;;5052669;28;20051;-74
2021/09/10 01:32:48;;;;;;;10.73;8.23;;;16.50;79.00;;;;;;5052478;28;20071;-74
2021/09/10 01:35:14;;;;;;;15.95;9.75;;;16.40;79.00;;;;;;5052574;28;20114;-74
2021/09/10 01:37:40;;;;;;;15.00;8.65;;;16.40;79.30;;;;;;5056041;28;20486;-74
2021/09/10 01:40:07;;;;;;;13.07;9.05;;;16.30;79.60;;;;;;5056325;28;20108;-75
2021/09/10 01:42:32;;;;;;;12.95;8.55;;;16.40;79.50;;;;;;5056174;28;20489;-74
2021/09/10 01:44:58;;;;;;;13.40;8.52;;;16.40;79.40;;;;;;5056231;28;20031;-74
2021/09/10 01:47:23;;;;;;;11.80;9.00;;;16.30;79.60;;;;;;5056246;28;20100;-74
2021/09/10 01:49:49;;;;;;;11.45;8.55;;;16.30;79.70;;;;;;5056297;28;20029;-75
2021/09/10 01:52:15;;;;;;;10.95;9.00;;;16.30;79.70;;;;;;5056060;28;20098;-75
2021/09/10 01:54:40;;;;;;;13.05;8.93;;;16.30;79.70;;;;;;5055990;28;20036;-75
2021/09/10 01:57:06;;;;;;;11.45;8.50;;;16.30;79.60;;;;;;5064880;28;20029;-76
2021/09/10 01:59:32;;;;;;;9.55;8.30;;;16.40;79.50;;;;;;5067506;28;20373;-75
2021/09/10 02:01:57;;;;;;;11.52;8.45;;;16.30;79.30;;;;;;5056129;28;20032;-75
2021/09/10 02:04:23;;;;;;;13.48;8.32;;;16.30;79.40;;;;;;5055843;28;20040;-75
2021/09/10 02:06:48;;;;;;;13.90;8.77;;;16.30;79.60;;;;;;5055943;28;20029;-76
2021/09/10 02:09:14;;;;;;;10.98;8.73;;;16.30;79.50;;;;;;5055785;28;20021;-74
2021/09/10 02:11:40;;;;;;;11.60;8.48;;;16.30;79.50;;;;;;5055811;28;20064;-75
2021/09/10 02:14:05;;;;;;;12.75;8.88;;;16.30;79.60;;;;;;5055752;28;20423;-75
2021/09/10 02:16:31;;;;;;;8.85;7.80;;;16.20;79.40;;;;;;5055670;28;20484;-75
2021/09/10 02:18:57;;;;;;;9.23;8.13;;;16.20;79.30;;;;;;5055614;28;20054;-75
2021/09/10 02:21:23;;;;;;;11.63;8.00;;;16.30;79.40;;;;;;5055629;28;20412;-75
2021/09/10 02:23:49;;;;;;;11.77;9.02;;;16.30;79.20;;;;;;5055583;28;20029;-75
2021/09/10 02:26:14;;;;;;;10.05;8.40;;;16.30;79.10;;;;;;5055542;28;20025;-75
2021/09/10 02:28:40;;;;;;;8.88;7.15;;;16.30;78.90;;;;;;5055415;28;20029;-75
2021/09/10 02:31:05;;;;;;;10.80;8.27;;;16.40;79.60;;;;;;5055327;28;20028;-75
2021/09/10 02:33:31;;;;;;;10.73;7.90;;;16.40;78.70;;;;;;5055298;28;20108;-74
2021/09/10 02:35:57;;;;;;;10.20;8.05;;;16.50;78.50;;;;;;5055063;28;20048;-74
2021/09/10 02:38:23;;;;;;;11.20;7.85;;;16.50;78.20;;;;;;5055311;28;20029;-74
2021/09/10 02:40:50;;;;;;;12.15;8.25;;;16.50;78.10;;;;;;5055354;28;20029;-75
2021/09/10 02:43:16;;;;;;;13.20;7.47;;;16.60;78.10;;;;;;5055147;28;20111;-74
2021/09/10 02:45:42;;;;;;;9.52;7.43;;;16.60;77.80;;;;;;5055081;28;20028;-75
2021/09/10 02:48:07;;;;;;;10.93;8.60;;;16.60;77.80;;;;;;5054669;28;20040;-75
2021/09/10 02:50:33;;;;;;;10.27;7.53;;;16.60;77.70;;;;;;5054950;28;20021;-74
2021/09/10 02:52:59;;;;;;;10.85;7.85;;;16.60;77.60;;;;;;5055054;28;20033;-74
2021/09/10 02:55:24;;;;;;;9.75;8.65;;;16.50;77.50;;;;;;5054769;28;20032;-76
2021/09/10 02:57:50;;;;;;;13.95;8.98;;;16.50;77.40;;;;;;5054967;28;20481;-75
2021/09/10 03:00:16;;;;;;;13.77;8.85;;;16.50;77.60;;;;;;5054823;28;20100;-76
2021/09/10 03:02:42;;;;;;;12.02;8.00;;;16.40;77.60;;;;;;5054868;28;20032;-75
2021/09/10 03:05:09;;;;;;;14.32;8.52;;;16.40;77.60;;;;;;5054801;28;20374;-76
2021/09/10 03:07:35;;;;;;;9.93;7.80;;;16.40;77.60;;;;;;5054650;28;20048;-76
2021/09/10 03:10:01;;;;;;;17.92;7.72;;;16.30;77.70;;;;;;5054586;28;20473;-76
2021/09/10 03:12:27;;;;;;;10.07;8.10;;;16.40;77.90;;;;;;5054506;28;20116;-76
2021/09/10 03:14:52;;;;;;;10.07;8.13;;;16.30;77.80;;;;;;5054588;28;20449;-75
2021/09/10 03:17:18;;;;;;;8.50;7.60;;;16.40;77.70;;;;;;5054441;28;20025;-75
2021/09/10 03:19:43;;;;;;;8.85;7.95;;;16.50;77.70;;;;;;5054421;28;20040;-76
2021/09/10 03:22:09;;;;;;;9.10;7.65;;;16.50;77.50;;;;;;5054392;28;20021;-75
2021/09/10 03:24:35;;;;;;;9.82;8.20;;;16.50;77.40;;;;;;5054330;28;20025;-76
2021/09/10 03:27:00;;;;;;;10.40;7.97;;;16.50;77.10;;;;;;5054402;28;20025;-76
2021/09/10 03:29:26;;;;;;;12.25;7.88;;;16.60;76.90;;;;;;5054262;28;20033;-75
2021/09/10 03:31:52;;;;;;;12.35;8.15;;;16.60;76.90;;;;;;5054175;28;20086;-74
2021/09/10 03:34:17;;;;;;;13.25;8.32;;;16.50;76.80;;;;;;5053589;28;20025;-76
2021/09/10 03:36:43;;;;;;;11.98;8.18;;;16.50;76.70;;;;;;5054017;28;20123;-77
2021/09/10 03:39:08;;;;;;;9.70;7.38;;;16.50;76.90;;;;;;5054729;28;20434;-77
2021/09/10 03:41:34;;;;;;;11.27;8.18;;;16.50;77.00;;;;;;5053184;28;20032;-76
2021/09/10 03:44:00;;;;;;;9.88;7.53;;;16.60;76.70;;;;;;5054362;28;20140;-76
2021/09/10 03:46:25;;;;;;;9.27;7.90;;;16.50;76.70;;;;;;5056145;28;20052;-76
2021/09/10 03:48:51;;;;;;;9.27;7.63;;;16.60;76.50;;;;;;5059266;28;20097;-76
2021/09/10 03:51:17;;;;;;;11.75;7.43;;;16.60;76.40;;;;;;5057411;28;20028;-76
2021/09/10 03:53:43;;;;;;;9.38;7.53;;;16.60;76.10;;;;;;5054551;28;20580;-75
2021/09/10 03:56:09;;;;;;;9.95;7.50;;;16.60;76.20;;;;;;5053924;28;20021;-75
2021/09/10 03:58:34;;;;;;;10.50;7.72;;;16.70;76.20;;;;;;5052868;28;20029;-75
2021/09/10 04:01:00;;;;;;;12.75;8.48;;;16.70;76.20;;;;;;5053751;28;20492;-75
2021/09/10 04:03:26;;;;;;;11.10;7.75;;;16.60;76.20;;;;;;5053700;28;20021;-75
2021/09/10 04:05:51;;;;;;;11.48;7.90;;;16.70;76.30;;;;;;5053744;28;20021;-75
2021/09/10 04:08:17;;;;;;;12.52;7.82;;;16.60;76.10;;;;;;5053571;28;20098;-75
2021/09/10 04:10:43;;;;;;;8.88;7.38;;;16.60;76.20;;;;;;5053568;28;20033;-75
2021/09/10 04:13:10;;;;;;;10.13;7.80;;;16.60;76.40;;;;;;5053537;28;20037;-75
2021/09/10 04:15:36;;;;;;;14.35;7.95;;;16.60;76.50;;;;;;5052106;28;20049;-75
2021/09/10 04:18:02;;;;;;;9.20;7.47;;;16.60;76.50;;;;;;5053511;28;20029;-76
2021/09/10 04:20:28;;;;;;;11.27;7.97;;;16.60;76.40;;;;;;5052062;28;20017;-76
2021/09/10 04:23:16;;;;;;;10.38;7.63;;;16.60;75.90;;;;;;5053767;28;20032;-75
2021/09/10 04:25:42;;;;;;;11.60;7.82;;;16.70;76.10;;;;;;5053329;28;20021;-76
2021/09/10 04:28:07;;;;;;;10.23;8.02;;;16.60;76.10;;;;;;5053344;28;20036;-77
2021/09/10 04:30:33;;;;;;;12.52;8.00;;;16.70;76.20;;;;;;5053373;28;20025;-77
2021/09/10 04:32:59;;;;;;;9.60;7.55;;;16.60;76.40;;;;;;5053157;28;20048;-76
2021/09/10 04:35:25;;;;;;;10.05;7.85;;;16.60;76.30;;;;;;5053484;28;20045;-76
2021/09/10 04:37:50;;;;;;;12.88;7.70;;;16.60;76.50;;;;;;5057004;28;20096;-77
2021/09/10 04:40:18;;;;;;;11.15;7.90;;;16.50;76.70;;;;;;5053120;28;20044;-77
2021/09/10 04:42:43;;;;;;;11.25;8.38;;;16.50;76.70;;;;;;5053188;28;20017;-78
2021/09/10 04:45:09;;;;;;;12.52;7.88;;;16.60;77.50;;;;;;5053076;28;20047;-76
2021/09/10 04:47:35;;;;;;;12.25;7.80;;;16.60;76.40;;;;;;5053012;28;20052;-76
2021/09/10 04:50:00;;;;;;;10.80;8.15;;;16.60;76.30;;;;;;5053116;28;20021;-76
2021/09/10 04:52:26;;;;;;;9.93;8.10;;;16.60;76.60;;;;;;5052889;28;20040;-76
2021/09/10 04:54:53;;;;;;;17.95;8.13;;;16.60;76.70;;;;;;5052877;28;20075;-76
2021/09/10 04:57:18;;;;;;;10.20;7.90;;;16.60;77.00;;;;;;5052813;28;20029;-77
2021/09/10 04:59:44;;;;;;;14.85;7.90;;;16.50;77.00;;;;;;5052815;28;20098;-77
2021/09/10 05:02:09;;;;;;;9.18;7.75;;;16.50;77.10;;;;;;5052875;28;20025;-76
2021/09/10 05:04:35;;;;;;;12.35;8.10;;;16.60;77.00;;;;;;5052633;28;20052;-74
2021/09/10 05:07:01;;;;;;;10.82;8.00;;;16.60;77.00;;;;;;5052865;28;20029;-76
2021/09/10 05:09:26;;;;;;;10.48;8.57;;;16.60;77.00;;;;;;5052711;28;20025;-76
2021/09/10 05:11:52;;;;;;;10.80;8.85;;;16.60;76.70;;;;;;5056827;28;20533;-75
2021/09/10 05:14:17;;;;;;;11.65;8.63;;;16.70;76.70;;;;;;5056764;28;20043;-76
2021/09/10 05:16:43;;;;;;;10.23;7.75;;;16.70;76.50;;;;;;5056688;28;20051;-75
2021/09/10 05:19:09;;;;;;;9.75;8.23;;;16.70;76.20;;;;;;5056692;28;20071;-76
2021/09/10 05:21:36;;;;;;;12.90;8.18;;;16.80;76.10;;;;;;5056718;28;20458;-75
2021/09/10 05:24:02;;;;;;;11.10;8.07;;;16.80;76.20;;;;;;5056782;28;20025;-75
2021/09/10 05:26:27;;;;;;;12.73;8.38;;;16.80;76.20;;;;;;5056574;28;20059;-77
2021/09/10 05:28:53;;;;;;;9.82;7.97;;;16.80;76.00;;;;;;5056532;28;20029;-76
2021/09/10 05:31:18;;;;;;;17.88;9.07;;;16.90;75.90;;;;;;5056328;28;20025;-77
2021/09/10 05:33:44;;;;;;;12.93;8.10;;;16.90;75.90;;;;;;5055375;28;20025;-75
2021/09/10 05:36:09;;;;;;;12.45;8.10;;;17.00;77.40;;;;;;5056306;28;20543;-75
2021/09/10 05:38:35;;;;;;;15.63;9.02;;;17.20;79.00;;;;;;5056204;28;20036;-74
2021/09/10 05:41:01;;;;;;;14.43;8.32;;;17.40;76.10;;;;;;5056363;28;20022;-75
2021/09/10 05:43:26;;;;;;;17.42;8.20;;;17.50;75.60;;;;;;5055994;28;20040;-75
2021/09/10 05:45:52;;;;;;;10.75;8.38;;;17.50;74.40;;;;;;5056096;28;20025;-75
2021/09/10 05:48:20;;;;;;;12.30;8.15;;;17.70;74.30;;;;;;5056156;28;20048;-77
2021/09/10 05:50:46;;;;;;;10.55;7.38;;;17.80;74.00;;;;;;5056149;28;20036;-76
2021/09/10 05:53:13;;;;;;;11.25;8.00;;;17.90;74.00;;;;;;5056160;28;20061;-75
2021/09/10 05:55:39;;;;;;;14.00;7.88;;;18.00;73.00;;;;;;5055932;28;20057;-75
2021/09/10 05:58:05;;;;;;;15.73;8.40;;;18.10;73.00;;;;;;5055837;28;20395;-75
2021/09/10 06:00:30;;;;;;;12.18;7.78;;;18.10;72.70;;;;;;5055829;28;20017;-75
2021/09/10 06:02:56;;;;;;;8.77;7.63;;;18.20;72.20;;;;;;5055717;28;20021;-75
2021/09/10 06:05:21;;;;;;;12.95;8.02;;;18.20;72.50;;;;;;5055784;28;20035;-75
2021/09/10 06:07:47;;;;;;;14.20;7.82;;;18.20;71.70;;;;;;5055763;28;20052;-75
2021/09/10 06:10:13;;;;;;;11.23;7.82;;;18.30;72.40;;;;;;5055855;28;20028;-75
2021/09/10 06:12:40;;;;;;;9.82;7.35;;;18.40;71.60;;;;;;5055625;28;20071;-73
2021/09/10 06:15:06;;;;;;;10.38;7.57;;;18.50;71.90;;;;;;5055818;28;20423;-75
2021/09/10 06:17:32;;;;;;;11.32;8.07;;;18.60;70.50;;;;;;5055642;28;20032;-75
2021/09/10 06:19:57;;;;;;;13.00;7.50;;;18.60;70.80;;;;;;5055500;28;20082;-75
2021/09/10 06:22:23;;;;;;;10.95;7.60;;;18.80;71.60;;;;;;5054486;28;20113;-75
2021/09/10 06:24:48;;;;;;;12.27;8.02;;;18.90;70.90;;;;;;5055395;28;20484;-75
2021/09/10 06:27:14;;;;;;;11.32;8.13;;;19.00;70.50;;;;;;5055685;28;20032;-74
2021/09/10 06:29:39;;;;;;;10.90;7.45;;;19.10;70.00;;;;;;5055260;28;20072;-74
2021/09/10 06:32:05;;;;;;;11.45;8.00;;;19.20;69.70;;;;;;5055229;28;20048;-73
2021/09/10 06:34:31;;;;;;;9.75;7.18;;;19.30;69.50;;;;;;5054920;28;20029;-73
2021/09/10 06:36:56;;;;;;;10.45;7.50;;;19.40;69.20;;;;;;5055191;28;20040;-73
2021/09/10 06:39:22;;;;;;;9.15;7.07;;;19.50;68.80;;;;;;5055186;28;20067;-73
2021/09/10 06:41:47;;;;;;;8.13;6.78;;;19.50;68.70;;;;;;5055020;28;20167;-74
2021/09/10 06:44:13;;;;;;;8.68;7.32;;;19.50;68.50;;;;;;5054968;28;20021;-73
2021/09/10 06:46:39;;;;;;;11.25;7.40;;;19.60;68.40;;;;;;5054754;28;20032;-73
2021/09/10 06:49:04;;;;;;;10.85;7.38;;;19.60;68.20;;;;;;5054685;28;20543;-73
2021/09/10 06:51:30;;;;;;;8.10;6.97;;;19.70;67.80;;;;;;5054704;28;20044;-73
2021/09/10 06:53:56;;;;;;;11.45;7.05;;;19.70;68.00;;;;;;5054536;28;20024;-73
2021/09/10 06:56:22;;;;;;;9.15;6.80;;;19.80;67.70;;;;;;5054484;28;20079;-73
2021/09/10 06:58:48;;;;;;;10.00;6.90;;;19.80;67.30;;;;;;5055045;28;20465;-73
2021/09/10 07:01:13;;;;;;;9.07;6.57;;;19.90;67.10;;;;;;5054902;28;20337;-73
2021/09/10 07:03:39;;;;;;;9.65;7.15;;;19.90;67.00;;;;;;5054574;28;20436;-76
2021/09/10 07:06:06;;;;;;;9.07;7.32;;;19.90;67.20;;;;;;5055168;28;20458;-76
2021/09/10 07:08:32;;;;;;;10.48;6.93;;;19.90;67.20;;;;;;5061104;28;20029;-74
2021/09/10 07:10:57;;;;;;;10.73;6.60;;;19.90;67.00;;;;;;5056378;28;20021;-74
2021/09/10 07:13:23;;;;;;;8.35;6.90;;;20.00;66.70;;;;;;5054207;28;20115;-74
2021/09/10 07:15:49;;;;;;;6.60;5.60;;;20.00;66.30;;;;;;5054455;28;20490;-74
2021/09/10 07:18:15;;;;;;;7.85;6.15;;;20.10;66.50;;;;;;5054270;28;20104;-75
2021/09/10 07:20:40;;;;;;;9.52;6.82;;;20.10;66.50;;;;;;5054281;28;20461;-74
2021/09/10 07:23:06;;;;;;;10.48;7.10;;;20.10;66.70;;;;;;5054188;28;20029;-75
2021/09/10 07:25:31;;;;;;;8.77;6.60;;;20.10;66.40;;;;;;5054275;28;20468;-74
2021/09/10 07:27:57;;;;;;;8.98;6.38;;;20.20;65.70;;;;;;5054255;28;20052;-74
2021/09/10 07:30:22;;;;;;;8.30;6.28;;;20.20;65.80;;;;;;5053927;28;20037;-75
2021/09/10 07:32:48;;;;;;;6.43;5.82;;;20.30;65.70;;;;;;5053536;28;20041;-75
2021/09/10 07:35:14;;;;;;;9.00;6.47;;;20.30;65.70;;;;;;5053175;28;20125;-75
2021/09/10 07:37:40;;;;;;;10.27;7.28;;;20.30;65.90;;;;;;5053869;28;20063;-75
2021/09/10 07:40:06;;;;;;;7.45;6.53;;;20.30;65.70;;;;;;5053889;28;20468;-74
2021/09/10 07:42:33;;;;;;;8.88;6.50;;;20.30;65.60;;;;;;5053811;28;20398;-74
2021/09/10 07:44:58;;;;;;;9.20;6.75;;;20.30;65.60;;;;;;5053715;28;20021;-75
2021/09/10 07:47:24;;;;;;;7.28;6.40;;;20.30;65.50;;;;;;5054171;28;20018;-75
2021/09/10 07:49:49;;;;;;;8.63;6.50;;;20.30;65.80;;;;;;5053632;28;20491;-75
2021/09/10 07:52:15;;;;;;;8.55;6.65;;;20.30;65.80;;;;;;5053409;28;20109;-74
2021/09/10 07:54:41;;;;;;;7.15;5.85;;;20.30;65.60;;;;;;5053577;28;20460;-75
2021/09/10 07:57:06;;;;;;;8.25;5.57;;;20.40;65.60;;;;;;5053325;28;20067;-75
2021/09/10 07:59:32;;;;;;;9.68;6.90;;;20.40;65.60;;;;;;5053432;28;20025;-74
2021/09/10 08:01:57;;;;;;;6.93;5.90;;;20.40;65.60;;;;;;5053398;28;20024;-75
2021/09/10 08:04:25;;;;;;;7.32;6.07;;;20.50;65.70;;;;;;5053201;28;20036;-75
2021/09/10 08:06:51;;;;;;;7.90;6.25;;;20.50;65.80;;;;;;5053399;28;20389;-75
2021/09/10 08:09:16;;;;;;;8.05;6.80;;;20.70;65.50;;;;;;5053305;28;20025;-74
2021/09/10 08:11:42;;;;;;;7.43;6.60;;;20.70;65.30;;;;;;5053182;28;20033;-75
2021/09/10 08:14:09;;;;;;;8.90;6.95;;;20.80;65.10;;;;;;5053068;28;20025;-75
2021/09/10 08:16:35;;;;;;;9.13;6.78;;;20.80;64.80;;;;;;5053220;28;20028;-75
2021/09/10 08:19:01;;;;;;;7.10;6.40;;;20.80;64.20;;;;;;5052942;28;20025;-74
2021/09/10 08:21:27;;;;;;;8.52;6.85;;;20.90;64.20;;;;;;5053044;28;20104;-74
2021/09/10 08:23:52;;;;;;;9.60;6.65;;;20.90;64.00;;;;;;5053015;28;20033;-74
2021/09/10 08:26:18;;;;;;;8.77;6.15;;;21.00;63.90;;;;;;5052936;28;20021;-74
2021/09/10 08:28:44;;;;;;;7.82;6.22;;;21.00;63.80;;;;;;5052704;28;20465;-76
2021/09/10 08:31:10;;;;;;;8.65;6.35;;;21.00;63.80;;;;;;5052485;28;20030;-73
2021/09/10 08:33:36;;;;;;;9.00;6.50;;;21.10;64.20;;;;;;5052451;28;20060;-74
2021/09/10 08:36:02;;;;;;;7.63;6.00;;;21.10;64.40;;;;;;5052119;28;20508;-74
2021/09/10 08:38:28;;;;;;;8.27;6.13;;;21.20;64.50;;;;;;5052436;28;20025;-75
2021/09/10 08:40:57;;;;;;;8.30;6.53;;;21.20;64.40;;;;;;5052711;28;20032;-73
2021/09/10 08:43:25;;;;;;;9.57;6.32;;;21.30;64.20;;;;;;5052625;28;20504;-75
2021/09/10 08:45:51;;;;;;;7.57;6.00;;;21.40;63.80;;;;;;5051920;28;20021;-75
2021/09/10 08:48:17;;;;;;;7.13;6.38;;;21.40;64.00;;;;;;5052565;28;20036;-76
2021/09/10 08:50:43;;;;;;;9.50;6.10;;;21.40;63.70;;;;;;5052468;28;20110;-76
2021/09/10 08:53:09;;;;;;;7.72;5.72;;;21.40;63.50;;;;;;5052693;28;20080;-77
2021/09/10 08:55:34;;;;;;;6.85;5.80;;;21.40;63.40;;;;;;5052512;28;20045;-77
2021/09/10 08:58:00;;;;;;;7.82;6.32;;;21.50;63.50;;;;;;5052438;28;20040;-76
2021/09/10 09:00:37;;;;;;;8.50;6.00;;;21.60;63.40;;;;;;5052378;28;20026;-77
2021/09/10 09:03:09;;;;;;;8.13;6.25;;;21.70;63.20;;;;;;5051484;28;20040;-77
2021/09/10 09:05:35;;;;;;;9.00;5.63;;;21.80;62.80;;;;;;5052718;28;20033;-76
2021/09/10 09:08:12;;;;;;;6.72;5.43;;;21.90;62.50;;;;;;5052864;28;20108;-77
2021/09/10 09:11:04;;;;;;;8.35;6.40;;;22.00;61.90;;;;;;5052735;28;20028;-75
2021/09/10 09:13:32;;;;;;;6.60;5.90;;;22.10;61.50;;;;;;5052552;28;20057;-76
2021/09/10 09:16:28;;;;;;;8.70;6.00;;;22.10;61.10;;;;;;5053867;28;20029;-75
2021/09/10 09:18:56;;;;;;;7.05;6.03;;;22.20;60.60;;;;;;5058741;28;20029;-76
2021/09/10 09:21:32;;;;;;;8.73;5.88;;;22.20;60.60;;;;;;5057618;28;20127;-76
2021/09/10 09:24:13;;;;;;;6.88;5.30;;;22.20;58.50;;;;;;5054333;28;20032;-76
2021/09/10 09:26:39;;;;;;;7.00;5.78;;;22.20;58.20;;;;;;5052904;28;20017;-75
2021/09/10 09:29:11;;;;;;;7.40;6.00;;;22.20;58.80;;;;;;5052676;28;20064;-75
2021/09/10 09:31:38;;;;;;;6.07;5.20;;;22.40;60.30;;;;;;5052015;28;20029;-76
2021/09/10 09:34:05;;;;;;;6.82;5.88;;;22.40;60.10;;;;;;5052566;28;20051;-76
2021/09/10 09:36:31;;;;;;;10.45;6.35;;;22.40;57.50;;;;;;5051615;28;20432;-75
2021/09/10 09:38:58;;;;;;;8.32;6.30;;;22.40;57.90;;;;;;5051974;28;20028;-76
2021/09/10 09:41:25;;;;;;;7.50;5.88;;;22.30;56.80;;;;;;5052521;28;20078;-76
2021/09/10 09:44:01;;;;;;;8.65;5.72;;;22.40;57.10;;;;;;5052328;28;20021;-74
2021/09/10 09:46:30;;;;;;;8.85;5.93;;;22.40;56.60;;;;;;5052283;28;20017;-75
2021/09/10 09:49:11;;;;;;;9.02;6.40;;;22.30;57.20;;;;;;5052212;28;20036;-75
2021/09/10 09:51:55;;;;;;;11.50;5.68;;;22.40;56.80;;;;;;5052022;28;20455;-75
2021/09/10 09:54:21;;;;;;;6.68;5.80;;;22.60;56.30;;;;;;5052053;28;20032;-75
2021/09/10 09:56:47;;;;;;;6.47;5.05;;;22.60;56.60;;;;;;5052589;28;20033;-74
2021/09/10 09:59:13;;;;;;;6.32;5.22;;;22.60;55.10;;;;;;5055926;28;20079;-76
2021/09/10 10:01:39;;;;;;;8.35;5.28;;;22.60;54.60;;;;;;5059375;28;20508;-77
2021/09/10 10:04:06;;;;;;;8.73;6.00;;;22.50;55.00;;;;;;5066104;28;20025;-76
2021/09/10 10:06:32;;;;;;;7.28;5.18;;;22.40;56.30;;;;;;5056550;28;20025;-75
2021/09/10 10:09:07;;;;;;;7.40;5.53;;;22.40;55.30;;;;;;5055827;28;20143;-76
2021/09/10 10:11:45;;;;;;;5.70;5.20;;;22.40;55.70;;;;;;5055454;28;20036;-77
2021/09/10 10:14:28;;;;;;;7.72;5.57;;;22.40;55.80;;;;;;5055557;28;20032;-76
2021/09/10 10:16:56;;;;;;;6.93;5.70;;;22.50;55.80;;;;;;5055567;28;20029;-76
2021/09/10 10:19:21;;;;;;;7.70;5.10;;;22.60;56.00;;;;;;5055243;28;20021;-77
2021/09/10 10:21:56;;;;;;;5.25;4.75;;;22.70;55.80;;;;;;5055029;28;20021;-76
2021/09/10 10:24:40;;;;;;;9.43;5.60;;;22.80;55.10;;;;;;5055388;28;20025;-76
2021/09/10 10:27:35;;;;;;;6.65;5.15;;;22.90;55.10;;;;;;5055384;28;20031;-77
2021/09/10 10:30:17;;;;;;;7.97;5.10;;;22.80;54.60;;;;;;5055282;28;20113;-76
2021/09/10 10:32:53;;;;;;;8.10;5.57;;;22.60;55.00;;;;;;5055127;28;20033;-76
2021/09/10 10:35:32;;;;;;;7.78;5.72;;;22.60;56.30;;;;;;5054969;28;20049;-76
2021/09/10 10:38:06;;;;;;;6.53;5.65;;;22.70;55.80;;;;;;5055118;28;20075;-76
2021/09/10 10:40:44;;;;;;;5.90;5.32;;;22.60;56.40;;;;;;5055137;28;20021;-75
2021/09/10 10:43:22;;;;;;;7.72;5.72;;;22.60;55.10;;;;;;5054787;28;20025;-76
2021/09/10 10:45:47;;;;;;;6.53;5.88;;;22.60;55.70;;;;;;5055018;28;20154;-77
2021/09/10 10:48:33;;;;;;;8.07;5.88;;;22.60;55.80;;;;;;5054880;28;20132;-76
2021/09/10 10:51:02;;;;;;;8.68;5.25;;;22.50;56.50;;;;;;5054466;28;20104;-76
2021/09/10 10:53:28;;;;;;;6.90;5.85;;;22.40;56.70;;;;;;5054712;28;20099;-75
2021/09/10 10:55:54;;;;;;;6.05;5.43;;;22.40;57.20;;;;;;5054616;28;20028;-75
2021/09/10 10:58:25;;;;;;;6.53;5.70;;;22.40;57.00;;;;;;5054825;28;20025;-75
2021/09/10 11:00:58;;;;;;;8.13;5.68;;;22.50;56.80;;;;;;5054795;28;20420;-76
2021/09/10 11:03:29;;;;;;;6.38;5.43;;;22.50;56.60;;;;;;5054711;28;20040;-76
2021/09/10 11:05:58;;;;;;;8.73;6.25;;;22.70;56.70;;;;;;5054580;28;20028;-76
2021/09/10 11:08:32;;;;;;;11.18;6.40;;;22.60;57.20;;;;;;5054124;28;20029;-77
2021/09/10 11:10:58;;;;;;;8.93;6.20;;;22.70;57.30;;;;;;5053385;28;20067;-77
2021/09/10 11:13:24;;;;;;;7.20;5.53;;;22.70;56.60;;;;;;5054562;28;20037;-77
2021/09/10 11:15:49;;;;;;;7.90;5.75;;;22.80;56.70;;;;;;5054791;28;20032;-77
2021/09/10 11:18:15;;;;;;;7.18;5.55;;;22.80;57.30;;;;;;5056937;28;20029;-77
2021/09/10 11:20:48;;;;;;;11.85;6.60;;;22.90;57.20;;;;;;5054651;28;20094;-76
2021/09/10 11:23:36;;;;;;;7.22;6.13;;;23.00;56.40;;;;;;5054303;28;20404;-76
2021/09/10 11:26:05;;;;;;;9.02;6.03;;;23.10;55.70;;;;;;5054448;28;20023;-76
2021/09/10 11:28:34;;;;;;;10.20;6.20;;;23.10;56.40;;;;;;5054457;28;20104;-76
2021/09/10 11:31:01;;;;;;;7.70;6.38;;;23.10;56.40;;;;;;5054157;28;20017;-77
2021/09/10 11:33:26;;;;;;;6.80;6.07;;;23.10;56.40;;;;;;5052600;28;20572;-76
2021/09/10 11:35:54;;;;;;;9.45;6.18;;;23.20;56.70;;;;;;5053727;28;20124;-76
2021/09/10 11:38:25;;;;;;;9.43;6.05;;;23.10;56.10;;;;;;5053980;28;20029;-76
2021/09/10 11:40:58;;;;;;;11.07;6.43;;;22.90;56.10;;;;;;5053986;28;20078;-77
2021/09/10 11:43:31;;;;;;;6.93;5.95;;;22.90;57.00;;;;;;5052400;28;20381;-77
2021/09/10 11:46:05;;;;;;;10.52;5.93;;;23.00;55.60;;;;;;5053977;28;20017;-77
2021/09/10 11:48:46;;;;;;;6.57;5.80;;;22.90;55.40;;;;;;5053876;28;20369;-77
2021/09/10 11:51:14;;;;;;;10.50;6.65;;;23.00;55.10;;;;;;5053713;28;20029;-76
2021/09/10 11:53:45;;;;;;;6.43;5.70;;;23.10;54.40;;;;;;5053540;28;20028;-76
2021/09/10 11:56:12;;;;;;;7.13;6.50;;;23.10;53.80;;;;;;5052421;28;20017;-76
2021/09/10 11:58:45;;;;;;;10.75;6.70;;;23.00;54.80;;;;;;5053554;28;20021;-76
2021/09/10 12:01:14;;;;;;;6.85;6.15;;;23.00;54.80;;;;;;5053362;28;20024;-76
2021/09/10 12:03:46;;;;;;;7.53;6.45;;;23.00;54.40;;;;;;5053576;28;20029;-77
2021/09/10 12:06:16;;;;;;;7.85;6.00;;;22.90;54.40;;;;;;5053529;28;20024;-76
2021/09/10 12:09:18;;;;;;;8.15;6.65;;;22.80;54.80;;;;;;5053352;28;20104;-76
2021/09/10 12:12:17;;;;;;;7.82;6.25;;;22.80;55.90;;;;;;5053035;28;20051;-76
2021/09/10 12:14:52;;;;;;;8.90;6.20;;;22.80;56.40;;;;;;5053434;28;20074;-76
2021/09/10 12:17:24;;;;;;;8.43;6.47;;;22.90;55.70;;;;;;5053373;28;20025;-76
2021/09/10 12:20:11;;;;;;;10.63;6.68;;;22.80;55.00;;;;;;5051753;28;20389;-76
2021/09/10 12:22:41;;;;;;;10.80;5.75;;;22.80;54.20;;;;;;5051796;28;20025;-76
2021/09/10 12:25:44;;;;;;;6.82;5.10;;;22.90;51.80;;;;;;5053197;28;20067;-76
2021/09/10 12:28:14;;;;;;;9.00;5.53;;;23.10;50.10;;;;;;5053333;28;20020;-76
2021/09/10 12:30:57;;;;;;;7.22;5.05;;;23.20;49.70;;;;;;5053419;28;20041;-76
2021/09/10 12:33:24;;;;;;;8.77;5.40;;;23.30;49.50;;;;;;5053942;28;20037;-77
2021/09/10 12:35:52;;;;;;;10.15;5.20;;;23.30;50.00;;;;;;5053471;28;20052;-77
2021/09/10 12:38:19;;;;;;;13.15;5.45;;;23.50;49.60;;;;;;5054308;28;20109;-78
2021/09/10 12:40:48;;;;;;;9.77;5.53;;;23.60;48.20;;;;;;5053517;28;20508;-77
2021/09/10 12:43:15;;;;;;;6.22;5.28;;;23.50;47.40;;;;;;5053444;28;20082;-78
2021/09/10 12:45:43;;;;;;;8.07;6.05;;;23.20;49.00;;;;;;5053015;28;20032;-78